Time;durP1;ratioP1;P1;durP2;ratioP2;P2;SDS_P1;SDS_P2;PMS_P1;PMS_P2;Temp;Humidity;BMP_temperature;BMP_pressure;BME280_temperature;BME280_humidity;BME280_pressure;Samples;Min_cycle;Max_cycle;Signal;HPM_P1;HPM_P2
2021/08/25 00:00:38;;;;;;;2.50;2.30;;;18.20;82.70;;;;;;4919035;28;20536;-83
2021/08/25 00:03:05;;;;;;;3.10;2.43;;;18.20;82.50;;;;;;4904474;28;20457;-83
2021/08/25 00:05:32;;;;;;;2.90;2.40;;;18.20;82.20;;;;;;4897830;29;21036;-84
2021/08/25 00:08:00;;;;;;;2.17;1.93;;;18.10;83.80;;;;;;4875965;29;21111;-84
2021/08/25 00:10:27;;;;;;;9.53;3.30;;;18.00;83.80;;;;;;4905982;29;20464;-83
2021/08/25 00:12:53;;;;;;;3.03;2.43;;;18.10;84.60;;;;;;4904310;29;20489;-81
2021/08/25 00:15:20;;;;;;;2.30;2.10;;;18.20;85.10;;;;;;4888294;29;20478;-82
2021/08/25 00:17:47;;;;;;;5.13;2.50;;;18.30;83.90;;;;;;4903057;29;20476;-83
2021/08/25 00:20:13;;;;;;;3.80;2.30;;;18.10;84.50;;;;;;4919576;29;21856;-80
2021/08/25 00:22:40;;;;;;;3.83;2.23;;;18.00;85.00;;;;;;4903946;29;20473;-83
2021/08/25 00:25:07;;;;;;;6.33;2.60;;;18.00;86.00;;;;;;4917843;29;20484;-80
2021/08/25 00:27:34;;;;;;;2.50;2.30;;;18.00;86.10;;;;;;4914860;29;20446;-80
2021/08/25 00:30:03;;;;;;;2.90;2.60;;;18.10;86.10;;;;;;4912102;29;20468;-83
2021/08/25 00:32:30;;;;;;;3.03;2.60;;;18.20;86.10;;;;;;4902872;29;20790;-83
2021/08/25 00:34:57;;;;;;;3.73;2.10;;;18.20;86.50;;;;;;4903227;29;20476;-81
2021/08/25 00:37:23;;;;;;;3.70;2.10;;;18.20;86.40;;;;;;4887866;29;20462;-80
2021/08/25 00:39:50;;;;;;;3.97;3.13;;;18.20;86.70;;;;;;4901570;29;20629;-83
2021/08/25 00:42:17;;;;;;;3.17;2.73;;;18.20;86.90;;;;;;4894954;29;20457;-80
2021/08/25 00:44:45;;;;;;;3.73;2.53;;;18.30;87.00;;;;;;4891499;29;21120;-83
2021/08/25 00:47:15;;;;;;;2.40;2.20;;;18.30;87.00;;;;;;4904114;29;20462;-79
2021/08/25 00:49:44;;;;;;;2.77;2.13;;;18.30;87.40;;;;;;4901937;29;21733;-82
2021/08/25 00:52:11;;;;;;;3.60;2.83;;;18.30;87.40;;;;;;4885509;29;20466;-82
2021/08/25 00:54:38;;;;;;;3.00;2.43;;;18.20;87.70;;;;;;4900981;29;20666;-82
2021/08/25 00:57:05;;;;;;;5.73;2.60;;;18.20;88.40;;;;;;4884970;29;20465;-83
2021/08/25 00:59:33;;;;;;;3.20;2.33;;;18.20;88.30;;;;;;4884885;29;21077;-85
2021/08/25 01:02:15;;;;;;;3.13;1.90;;;18.30;87.10;;;;;;4885380;29;20528;-81
2021/08/25 01:04:48;;;;;;;3.13;2.40;;;18.30;85.60;;;;;;4899342;29;20460;-81
2021/08/25 01:07:16;;;;;;;3.17;2.53;;;18.10;85.60;;;;;;4888322;29;20561;-82
2021/08/25 01:09:43;;;;;;;3.10;2.60;;;18.10;85.80;;;;;;4903168;29;20473;-84
2021/08/25 01:12:10;;;;;;;3.30;2.30;;;18.20;85.90;;;;;;4891939;29;20488;-80
2021/08/25 01:14:39;;;;;;;2.60;2.40;;;18.30;86.40;;;;;;4899690;29;21036;-83
2021/08/25 01:17:07;;;;;;;4.93;2.30;;;18.20;85.70;;;;;;4883409;29;20593;-80
2021/08/25 01:20:03;;;;;;;2.73;2.00;;;18.20;85.70;;;;;;4902957;29;20510;-81
2021/08/25 01:22:31;;;;;;;2.40;2.17;;;17.90;86.90;;;;;;4882067;29;20481;-80
2021/08/25 01:24:58;;;;;;;3.13;2.40;;;17.80;88.30;;;;;;4881196;29;20465;-81
2021/08/25 01:27:27;;;;;;;4.17;3.10;;;17.80;88.90;;;;;;4899108;29;20461;-83
2021/08/25 01:29:56;;;;;;;2.77;2.37;;;17.80;89.00;;;;;;4882355;29;20460;-83
2021/08/25 01:32:23;;;;;;;3.17;2.87;;;17.80;89.20;;;;;;4901017;29;20472;-79
2021/08/25 01:34:58;;;;;;;3.00;2.57;;;18.00;89.10;;;;;;4883286;29;20551;-83
2021/08/25 01:37:28;;;;;;;3.00;2.47;;;17.90;89.70;;;;;;4884045;29;20475;-81
2021/08/25 01:39:59;;;;;;;2.73;2.53;;;17.70;90.40;;;;;;4884178;29;21011;-83
2021/08/25 01:42:26;;;;;;;3.27;2.30;;;17.60;91.00;;;;;;4882494;29;22509;-84
2021/08/25 01:44:53;;;;;;;3.83;2.73;;;17.50;91.50;;;;;;4885938;29;21866;-81
2021/08/25 01:47:24;;;;;;;3.23;2.93;;;17.50;91.60;;;;;;4887979;29;20450;-81
2021/08/25 01:49:54;;;;;;;5.97;3.30;;;17.50;91.80;;;;;;4888351;29;20458;-81
2021/08/25 01:52:22;;;;;;;3.30;2.73;;;17.40;92.10;;;;;;4899690;29;20455;-82
2021/08/25 01:54:51;;;;;;;6.50;3.00;;;17.40;92.40;;;;;;4887643;29;20470;-82
2021/08/25 01:57:19;;;;;;;3.73;2.90;;;17.30;92.50;;;;;;4901129;29;20462;-82
2021/08/25 01:59:46;;;;;;;4.47;3.10;;;17.30;92.60;;;;;;4904513;29;20978;-83
2021/08/25 02:02:12;;;;;;;3.33;2.90;;;17.60;92.40;;;;;;4883615;29;20450;-80
2021/08/25 02:04:40;;;;;;;3.70;2.57;;;17.50;92.30;;;;;;4886509;29;20553;-81
2021/08/25 02:07:06;;;;;;;2.80;2.50;;;17.50;92.60;;;;;;4901717;29;20470;-83
2021/08/25 02:09:33;;;;;;;3.47;2.40;;;17.40;92.80;;;;;;4903712;29;20500;-82
2021/08/25 02:12:00;;;;;;;3.97;2.87;;;17.30;93.10;;;;;;4902996;29;20474;-82
2021/08/25 02:14:27;;;;;;;3.10;2.77;;;17.30;93.30;;;;;;4883443;29;20457;-82
2021/08/25 02:16:53;;;;;;;2.77;2.57;;;17.30;93.50;;;;;;4885691;29;20469;-80
2021/08/25 02:19:20;;;;;;;4.13;2.60;;;17.30;93.50;;;;;;4900885;29;20489;-81
2021/08/25 02:21:47;;;;;;;3.90;2.73;;;17.30;93.50;;;;;;4912721;29;20462;-82
2021/08/25 02:24:13;;;;;;;2.83;2.50;;;17.60;92.90;;;;;;4914980;29;20453;-80
2021/08/25 02:26:40;;;;;;;4.10;2.40;;;17.40;93.00;;;;;;4915344;29;20481;-81
2021/08/25 02:29:07;;;;;;;4.10;2.53;;;17.30;93.40;;;;;;4883499;29;20893;-83
2021/08/25 02:31:34;;;;;;;4.63;2.90;;;17.40;93.40;;;;;;4906412;29;20454;-80
2021/08/25 02:34:01;;;;;;;3.00;2.70;;;17.30;93.70;;;;;;4888607;29;20835;-81
2021/08/25 02:36:28;;;;;;;4.73;2.40;;;17.30;94.00;;;;;;4884622;29;21099;-82
2021/08/25 02:38:54;;;;;;;3.37;2.77;;;17.20;94.40;;;;;;4893922;29;20460;-80
2021/08/25 02:41:21;;;;;;;4.07;3.00;;;17.10;94.60;;;;;;4900993;29;20605;-80
2021/08/25 02:43:48;;;;;;;5.33;3.43;;;17.10;94.90;;;;;;4902352;29;20458;-82
2021/08/25 02:46:16;;;;;;;2.50;2.30;;;17.00;94.90;;;;;;4888570;29;22458;-82
2021/08/25 02:48:43;;;;;;;3.17;2.43;;;17.00;95.10;;;;;;4896549;29;20468;-82
2021/08/25 02:51:09;;;;;;;3.30;2.90;;;17.00;95.10;;;;;;4900852;29;20458;-80
2021/08/25 02:53:36;;;;;;;3.87;2.77;;;16.90;95.10;;;;;;4907099;29;20466;-84
2021/08/25 02:56:03;;;;;;;2.87;2.57;;;16.90;95.30;;;;;;4863171;29;20845;-80
2021/08/25 02:58:30;;;;;;;5.57;2.80;;;16.90;95.30;;;;;;4818131;29;20486;-82
2021/08/25 03:00:58;;;;;;;4.13;2.80;;;16.90;95.40;;;;;;4902431;29;20561;-82
2021/08/25 03:03:25;;;;;;;4.97;2.90;;;17.00;95.30;;;;;;4881271;29;21839;-82
2021/08/25 03:05:52;;;;;;;4.13;2.90;;;17.00;95.30;;;;;;4904368;29;20496;-80
2021/08/25 03:08:19;;;;;;;3.67;2.60;;;17.10;95.20;;;;;;4905007;29;20480;-80
2021/08/25 03:10:46;;;;;;;4.10;2.83;;;17.10;95.30;;;;;;4889916;29;20483;-82
2021/08/25 03:13:12;;;;;;;4.97;2.37;;;17.20;94.90;;;;;;4903420;29;21040;-83
2021/08/25 03:15:39;;;;;;;3.73;3.37;;;17.20;94.80;;;;;;4886410;29;21011;-83
2021/08/25 03:18:06;;;;;;;3.93;2.40;;;17.30;94.80;;;;;;4895584;29;20474;-80
2021/08/25 03:20:33;;;;;;;3.30;2.70;;;17.10;95.00;;;;;;4902703;29;21045;-79
2021/08/25 03:22:59;;;;;;;3.23;2.90;;;17.10;95.40;;;;;;4885089;29;20462;-84
2021/08/25 03:25:26;;;;;;;4.10;3.23;;;17.00;95.70;;;;;;4905341;29;20473;-81
2021/08/25 03:27:53;;;;;;;6.70;3.30;;;17.00;96.00;;;;;;4893240;29;20526;-79
2021/08/25 03:30:20;;;;;;;2.93;2.70;;;16.90;96.20;;;;;;4907640;29;20990;-83
2021/08/25 03:32:47;;;;;;;4.60;3.40;;;16.90;96.30;;;;;;4901517;29;20474;-82
2021/08/25 03:35:14;;;;;;;3.57;3.27;;;16.90;96.40;;;;;;4903385;29;20488;-82
2021/08/25 03:37:40;;;;;;;4.10;3.23;;;16.90;96.50;;;;;;4900502;29;20457;-82
2021/08/25 03:40:09;;;;;;;4.37;3.17;;;16.90;96.60;;;;;;4883646;29;20489;-80
2021/08/25 03:42:36;;;;;;;5.73;3.63;;;16.90;96.50;;;;;;4902291;29;20454;-81
2021/08/25 03:45:03;;;;;;;5.33;3.10;;;16.90;96.60;;;;;;4896974;29;20481;-81
2021/08/25 03:47:31;;;;;;;4.50;3.20;;;16.90;96.70;;;;;;4883202;29;21308;-79
2021/08/25 03:49:58;;;;;;;5.97;3.80;;;17.00;96.80;;;;;;4903718;29;20984;-81
2021/08/25 03:52:25;;;;;;;4.80;3.57;;;17.10;96.40;;;;;;4884394;29;20514;-83
2021/08/25 03:54:52;;;;;;;3.60;3.30;;;17.10;96.40;;;;;;4901167;29;20464;-82
2021/08/25 03:57:19;;;;;;;4.93;3.40;;;17.00;96.50;;;;;;4905174;29;20455;-83
2021/08/25 03:59:45;;;;;;;4.27;3.43;;;16.90;96.80;;;;;;4891084;29;20469;-83
2021/08/25 04:02:12;;;;;;;3.70;3.40;;;16.90;96.90;;;;;;4888325;29;20466;-81
2021/08/25 04:04:40;;;;;;;3.70;3.03;;;17.00;96.90;;;;;;4885445;29;21804;-82
2021/08/25 04:07:06;;;;;;;3.93;3.53;;;16.90;96.80;;;;;;4903679;29;20469;-80
2021/08/25 04:09:33;;;;;;;5.07;3.40;;;16.80;97.10;;;;;;4903501;29;20996;-81
2021/08/25 04:12:00;;;;;;;4.17;3.77;;;16.80;97.20;;;;;;4894108;29;20548;-81
2021/08/25 04:14:27;;;;;;;4.63;3.83;;;16.80;97.20;;;;;;4888976;29;20487;-82
2021/08/25 04:16:53;;;;;;;5.27;3.83;;;16.70;97.60;;;;;;4906291;29;20861;-82
2021/08/25 04:19:20;;;;;;;4.17;3.70;;;16.60;97.70;;;;;;4903886;28;21138;-82
2021/08/25 04:21:47;;;;;;;4.20;3.57;;;16.60;97.80;;;;;;4911369;28;20478;-81
2021/08/25 04:24:14;;;;;;;5.23;3.90;;;16.90;97.60;;;;;;4925122;28;20450;-82
2021/08/25 04:26:40;;;;;;;5.10;3.77;;;16.70;97.50;;;;;;4921629;28;20477;-83
2021/08/25 04:29:07;;;;;;;7.33;3.97;;;16.70;97.70;;;;;;4914160;29;20454;-82
2021/08/25 04:31:34;;;;;;;4.60;3.73;;;16.70;97.80;;;;;;4905109;29;20525;-83
2021/08/25 04:34:00;;;;;;;3.53;3.23;;;16.60;98.00;;;;;;4906258;29;20984;-82
2021/08/25 04:36:27;;;;;;;6.57;3.47;;;16.50;98.30;;;;;;4891916;29;20549;-81
2021/08/25 04:38:53;;;;;;;4.93;3.90;;;16.50;98.50;;;;;;4904249;29;20461;-83
2021/08/25 04:41:20;;;;;;;4.20;3.17;;;16.50;98.70;;;;;;4902823;29;20757;-83
2021/08/25 04:43:47;;;;;;;5.33;3.57;;;16.60;98.50;;;;;;4906492;29;20500;-83
2021/08/25 04:46:17;;;;;;;5.00;4.00;;;16.70;98.20;;;;;;4883445;29;20481;-83
2021/08/25 04:48:44;;;;;;;6.97;4.00;;;16.70;98.20;;;;;;4901755;29;20458;-81
2021/08/25 04:51:12;;;;;;;4.10;3.60;;;16.60;98.20;;;;;;4903008;29;20461;-81
2021/08/25 04:53:39;;;;;;;5.90;4.40;;;16.60;98.30;;;;;;4903114;29;20537;-81
2021/08/25 04:56:06;;;;;;;4.27;3.57;;;16.50;98.40;;;;;;4902667;29;20500;-79
2021/08/25 04:58:33;;;;;;;7.33;3.80;;;16.40;98.60;;;;;;4897979;29;20549;-82
2021/08/25 05:01:00;;;;;;;3.90;3.50;;;16.50;98.70;;;;;;4907621;28;20489;-79
2021/08/25 05:03:27;;;;;;;6.03;4.27;;;16.50;98.60;;;;;;4912449;29;20522;-82
2021/08/25 05:05:53;;;;;;;5.90;3.40;;;16.50;98.60;;;;;;4911311;29;20504;-81
2021/08/25 05:08:21;;;;;;;6.60;4.23;;;16.60;98.60;;;;;;4906676;29;20508;-79
2021/08/25 05:10:48;;;;;;;4.53;3.70;;;16.40;98.50;;;;;;4889091;29;20432;-80
2021/08/25 05:13:15;;;;;;;5.00;3.40;;;16.40;98.80;;;;;;4888630;29;20460;-80
2021/08/25 05:15:45;;;;;;;3.90;3.50;;;16.40;98.90;;;;;;4901050;29;20509;-81
2021/08/25 05:18:12;;;;;;;7.33;4.03;;;16.40;98.90;;;;;;4902379;29;21959;-83
2021/08/25 05:20:38;;;;;;;4.63;4.03;;;16.40;99.00;;;;;;4905424;29;20489;-81
2021/08/25 05:23:05;;;;;;;8.00;4.50;;;16.50;98.90;;;;;;4888568;29;20449;-83
2021/08/25 05:25:32;;;;;;;4.73;3.83;;;16.50;98.70;;;;;;4904184;29;20473;-84
2021/08/25 05:27:58;;;;;;;7.70;4.53;;;16.70;98.20;;;;;;4888646;29;20489;-82
2021/08/25 05:30:25;;;;;;;4.77;3.90;;;16.70;98.10;;;;;;4888173;29;20457;-82
2021/08/25 05:32:52;;;;;;;5.97;4.80;;;16.80;98.00;;;;;;4906670;29;21040;-80
2021/08/25 05:35:20;;;;;;;6.80;6.20;;;16.80;97.80;;;;;;4906383;29;20581;-82
2021/08/25 05:37:48;;;;;;;6.00;4.90;;;16.70;97.80;;;;;;4907995;29;20453;-83
2021/08/25 05:40:16;;;;;;;5.13;4.60;;;16.70;97.70;;;;;;4892293;29;20457;-80
2021/08/25 05:42:45;;;;;;;9.37;5.30;;;16.90;97.20;;;;;;4888119;29;20452;-82
2021/08/25 05:45:12;;;;;;;7.30;5.13;;;17.10;96.50;;;;;;4907747;29;20480;-81
2021/08/25 05:47:39;;;;;;;6.67;4.70;;;17.20;96.20;;;;;;4908345;29;20454;-80
2021/08/25 05:50:07;;;;;;;6.00;4.77;;;17.10;96.20;;;;;;4908801;29;20457;-83
2021/08/25 05:52:34;;;;;;;6.63;5.93;;;17.20;96.10;;;;;;4884738;29;21001;-80
2021/08/25 05:55:01;;;;;;;7.30;5.30;;;17.30;95.70;;;;;;4889605;29;20469;-82
2021/08/25 05:57:27;;;;;;;10.03;4.03;;;17.30;95.30;;;;;;4893612;29;20468;-82
2021/08/25 05:59:55;;;;;;;7.20;4.37;;;17.20;96.60;;;;;;4943064;29;20499;-82
2021/08/25 06:02:22;;;;;;;8.30;4.13;;;17.30;97.40;;;;;;4931987;29;20580;-82
2021/08/25 06:04:49;;;;;;;8.83;4.97;;;17.30;97.80;;;;;;4941451;29;20453;-82
2021/08/25 06:07:15;;;;;;;8.27;4.53;;;17.40;98.00;;;;;;4921059;29;20952;-83
2021/08/25 06:09:42;;;;;;;10.67;6.27;;;17.60;98.20;;;;;;4941932;29;20472;-81
2021/08/25 06:12:09;;;;;;;9.30;5.13;;;19.40;97.80;;;;;;4941902;29;20864;-83
2021/08/25 06:14:38;;;;;;;7.10;4.63;;;22.50;92.20;;;;;;4936847;29;20497;-82
2021/08/25 06:17:05;;;;;;;5.40;4.10;;;24.50;79.80;;;;;;4938074;29;20481;-81
2021/08/25 06:19:32;;;;;;;6.60;3.90;;;25.50;72.20;;;;;;4942579;29;20530;-82
2021/08/25 06:21:58;;;;;;;5.03;3.90;;;26.20;66.40;;;;;;4923875;29;20489;-84
2021/08/25 06:24:25;;;;;;;5.70;3.50;;;26.10;63.50;;;;;;4941095;29;20517;-83
2021/08/25 06:26:52;;;;;;;5.10;3.93;;;26.40;61.90;;;;;;4940820;29;20470;-83
2021/08/25 06:29:18;;;;;;;5.60;4.50;;;26.80;59.90;;;;;;4903604;29;20466;-83
2021/08/25 06:31:45;;;;;;;5.83;3.60;;;27.00;59.10;;;;;;4905235;29;20462;-81
2021/08/25 06:34:11;;;;;;;4.70;3.83;;;27.40;58.30;;;;;;4905165;29;20465;-81
2021/08/25 06:36:38;;;;;;;5.40;3.53;;;27.40;57.50;;;;;;4901891;29;20613;-82
2021/08/25 06:39:05;;;;;;;5.30;4.47;;;28.50;56.20;;;;;;4910825;29;20545;-81
2021/08/25 06:41:32;;;;;;;3.97;3.57;;;28.30;54.60;;;;;;4940321;29;20490;-83
2021/08/25 06:43:58;;;;;;;4.63;4.20;;;28.20;55.10;;;;;;4924359;29;20453;-83
2021/08/25 06:46:25;;;;;;;5.60;3.77;;;27.40;55.20;;;;;;4924618;29;20508;-82
2021/08/25 06:48:52;;;;;;;5.30;3.77;;;27.20;55.70;;;;;;4941637;29;20453;-82
2021/08/25 06:51:18;;;;;;;7.03;4.20;;;27.70;54.70;;;;;;4942162;29;20469;-81
2021/08/25 06:53:45;;;;;;;8.27;4.00;;;27.80;54.10;;;;;;4940317;29;20469;-82
2021/08/25 06:56:12;;;;;;;7.90;4.50;;;28.20;52.90;;;;;;4919623;29;20496;-83
2021/08/25 06:58:38;;;;;;;6.67;3.10;;;28.10;53.00;;;;;;4921544;29;20458;-84
2021/08/25 07:01:05;;;;;;;8.37;4.50;;;28.00;52.70;;;;;;4941155;29;20849;-83
2021/08/25 07:03:32;;;;;;;6.30;3.63;;;28.60;52.30;;;;;;4941554;29;20465;-83
2021/08/25 07:05:58;;;;;;;6.10;4.00;;;29.50;52.30;;;;;;4939881;29;20481;-83
2021/08/25 07:08:25;;;;;;;5.10;3.53;;;29.50;52.60;;;;;;4940645;29;21355;-84
2021/08/25 07:10:52;;;;;;;4.70;3.83;;;29.70;52.40;;;;;;4937583;29;20451;-83
2021/08/25 07:13:18;;;;;;;4.37;3.50;;;29.80;51.40;;;;;;4922353;29;20516;-82
2021/08/25 07:15:46;;;;;;;7.00;3.60;;;30.30;50.40;;;;;;4940946;29;20482;-82
2021/08/25 07:18:12;;;;;;;3.77;3.40;;;30.80;49.20;;;;;;4945354;29;20494;-83
2021/08/25 07:20:47;;;;;;;5.20;3.63;;;31.30;47.70;;;;;;4934115;29;20508;-84
2021/08/25 07:23:14;;;;;;;4.60;3.07;;;31.40;47.10;;;;;;4939085;29;20462;-83
2021/08/25 07:25:42;;;;;;;5.03;3.63;;;31.40;46.80;;;;;;4945873;29;20481;-83
2021/08/25 07:28:09;;;;;;;4.53;3.50;;;31.40;46.70;;;;;;4953146;28;20461;-81
2021/08/25 07:30:35;;;;;;;4.80;3.43;;;32.00;45.40;;;;;;4912046;29;20518;-81
2021/08/25 07:33:02;;;;;;;3.57;3.27;;;31.90;44.90;;;;;;4904428;28;20461;-81
2021/08/25 07:35:30;;;;;;;5.93;3.70;;;32.40;43.50;;;;;;4920339;28;20476;-81
2021/08/25 07:37:57;;;;;;;9.80;4.53;;;32.30;43.80;;;;;;4921408;29;20433;-80
2021/08/25 07:40:24;;;;;;;5.33;3.60;;;32.40;43.80;;;;;;4950972;28;20460;-83
2021/08/25 07:42:51;;;;;;;4.50;4.07;;;32.50;42.80;;;;;;4952407;29;20470;-82
2021/08/25 07:45:17;;;;;;;5.67;3.87;;;32.60;43.00;;;;;;4951013;28;20494;-82
2021/08/25 07:47:46;;;;;;;4.10;3.17;;;32.10;42.40;;;;;;4948223;29;20505;-83
2021/08/25 07:50:14;;;;;;;5.83;3.30;;;33.30;42.10;;;;;;4915110;29;20449;-84
2021/08/25 07:52:41;;;;;;;4.77;3.80;;;34.20;39.40;;;;;;4880652;29;20476;-80
2021/08/25 07:55:09;;;;;;;3.43;2.70;;;34.80;38.50;;;;;;4880352;29;20565;-80
2021/08/25 07:57:36;;;;;;;5.17;3.37;;;34.10;38.40;;;;;;4878043;29;20478;-81
2021/08/25 08:00:03;;;;;;;3.67;3.17;;;33.80;38.90;;;;;;4918465;29;20473;-82
2021/08/25 08:02:30;;;;;;;4.93;3.17;;;34.10;37.20;;;;;;4936314;29;20581;-82
2021/08/25 08:04:57;;;;;;;4.30;3.50;;;33.60;37.70;;;;;;4914606;29;20858;-82
2021/08/25 08:07:24;;;;;;;4.00;3.53;;;34.00;37.60;;;;;;4919750;29;20462;-82
2021/08/25 08:09:50;;;;;;;4.57;3.40;;;32.90;38.10;;;;;;4936810;29;20445;-82
2021/08/25 08:12:17;;;;;;;4.43;3.37;;;33.90;38.10;;;;;;4937372;29;20899;-83
2021/08/25 08:14:43;;;;;;;3.60;3.27;;;34.00;37.00;;;;;;4937296;29;20520;-80
2021/08/25 08:17:10;;;;;;;3.73;2.93;;;34.70;36.20;;;;;;4935816;29;20462;-82
2021/08/25 08:19:37;;;;;;;5.63;3.50;;;34.80;34.90;;;;;;4936486;29;20476;-82
2021/08/25 08:22:04;;;;;;;5.60;3.33;;;34.90;34.90;;;;;;4918912;29;20589;-83
2021/08/25 08:24:31;;;;;;;3.53;3.20;;;34.80;34.80;;;;;;4915718;29;20832;-81
2021/08/25 08:26:58;;;;;;;6.00;3.67;;;34.40;34.70;;;;;;4938542;29;20481;-83
2021/08/25 08:29:27;;;;;;;5.87;3.40;;;34.00;35.80;;;;;;4918635;29;20956;-81
2021/08/25 08:31:53;;;;;;;4.33;3.40;;;34.80;35.90;;;;;;4934833;29;20540;-82
2021/08/25 08:34:20;;;;;;;3.70;3.20;;;34.80;34.90;;;;;;4939002;29;20751;-82
2021/08/25 08:36:47;;;;;;;3.60;3.30;;;34.40;34.80;;;;;;4934550;29;20517;-82
2021/08/25 08:39:14;;;;;;;4.07;3.40;;;34.80;34.40;;;;;;4916875;29;20950;-82
2021/08/25 08:41:41;;;;;;;4.27;3.57;;;34.80;33.50;;;;;;4934412;29;21011;-83
2021/08/25 08:44:16;;;;;;;5.27;3.37;;;34.20;35.10;;;;;;4922902;29;20544;-84
2021/08/25 08:46:46;;;;;;;4.80;3.10;;;34.20;34.40;;;;;;4929903;29;20568;-81
2021/08/25 08:49:14;;;;;;;4.10;3.10;;;34.60;34.20;;;;;;4912472;29;20454;-82
2021/08/25 08:51:42;;;;;;;6.30;3.03;;;34.70;33.60;;;;;;4915716;29;20462;-85
2021/08/25 08:54:10;;;;;;;3.87;3.47;;;34.20;34.00;;;;;;4917902;29;20463;-83
2021/08/25 08:56:37;;;;;;;3.37;3.00;;;34.60;33.30;;;;;;4921935;29;20596;-83
2021/08/25 08:59:04;;;;;;;6.37;3.40;;;34.90;33.60;;;;;;4919243;29;20479;-83
2021/08/25 09:01:31;;;;;;;4.23;3.80;;;34.80;33.10;;;;;;4920541;29;20497;-85
2021/08/25 09:03:58;;;;;;;4.30;3.70;;;34.90;33.30;;;;;;4917226;29;20777;-83
2021/08/25 09:06:45;;;;;;;4.63;3.40;;;34.80;33.20;;;;;;4917892;29;20616;-81
2021/08/25 09:09:12;;;;;;;3.53;3.23;;;34.10;33.80;;;;;;4936743;29;20483;-84
2021/08/25 09:11:53;;;;;;;3.57;3.27;;;34.20;34.00;;;;;;4920361;29;20472;-84
2021/08/25 09:14:23;;;;;;;3.27;2.97;;;34.90;32.50;;;;;;4937471;29;21198;-84
2021/08/25 09:16:49;;;;;;;4.23;3.10;;;34.50;32.60;;;;;;4919823;29;20474;-83
2021/08/25 09:19:18;;;;;;;3.50;3.20;;;33.60;33.20;;;;;;4936892;29;20519;-82
2021/08/25 09:21:47;;;;;;;3.50;3.20;;;33.00;34.10;;;;;;4922615;29;20490;-83
2021/08/25 09:24:14;;;;;;;3.50;3.10;;;33.30;33.70;;;;;;4936874;29;20461;-83
2021/08/25 09:27:10;;;;;;;3.40;3.10;;;34.00;33.50;;;;;;4936880;29;20481;-84
2021/08/25 09:29:39;;;;;;;5.03;3.90;;;34.20;33.40;;;;;;4909765;29;20516;-83
2021/08/25 09:32:20;;;;;;;3.60;3.30;;;34.40;33.20;;;;;;4937128;29;20454;-83
2021/08/25 09:34:56;;;;;;;5.27;3.57;;;34.00;34.70;;;;;;4912283;29;21029;-81
2021/08/25 09:37:25;;;;;;;3.90;3.50;;;33.60;34.90;;;;;;4936361;29;20449;-83
2021/08/25 09:39:57;;;;;;;4.90;3.33;;;34.40;34.90;;;;;;4932412;29;20444;-83
2021/08/25 09:42:46;;;;;;;4.27;3.10;;;35.10;32.50;;;;;;4954875;28;20505;-84
2021/08/25 09:45:15;;;;;;;5.43;3.53;;;34.80;32.90;;;;;;4953051;28;20484;-83
2021/08/25 09:47:56;;;;;;;4.13;3.27;;;34.30;32.90;;;;;;4939891;28;20768;-84
2021/08/25 09:50:26;;;;;;;5.00;2.93;;;33.70;34.10;;;;;;4923296;29;20485;-83
2021/08/25 09:52:54;;;;;;;3.23;2.53;;;34.10;33.10;;;;;;4939995;29;20464;-84
2021/08/25 09:55:32;;;;;;;4.93;3.40;;;34.20;33.00;;;;;;4918841;29;20540;-83
2021/08/25 09:58:01;;;;;;;5.70;3.23;;;34.60;31.20;;;;;;4921927;29;21026;-83
2021/08/25 10:00:28;;;;;;;3.27;2.97;;;33.90;32.40;;;;;;4922325;29;20545;-83
2021/08/25 10:02:55;;;;;;;4.37;3.87;;;33.90;32.10;;;;;;4939034;29;20480;-82
2021/08/25 10:05:25;;;;;;;2.77;2.57;;;34.20;31.50;;;;;;4917070;29;20497;-83
2021/08/25 10:07:52;;;;;;;3.90;2.90;;;34.60;30.80;;;;;;4938676;29;20465;-82
2021/08/25 10:10:19;;;;;;;2.90;2.60;;;34.50;30.00;;;;;;4910248;29;20453;-81
2021/08/25 10:12:50;;;;;;;4.80;3.00;;;34.00;31.30;;;;;;4925584;29;20533;-83
2021/08/25 10:15:34;;;;;;;7.67;3.50;;;33.60;31.60;;;;;;4927966;29;20510;-84
2021/08/25 10:18:20;;;;;;;6.30;3.70;;;33.10;31.50;;;;;;4934017;29;20434;-83
2021/08/25 10:20:47;;;;;;;3.57;3.27;;;33.00;31.30;;;;;;4957834;28;20473;-83
2021/08/25 10:23:13;;;;;;;3.73;2.80;;;33.20;31.20;;;;;;4929231;28;20532;-84
2021/08/25 10:34:37;;;;;;;;;;;;;;;;;;;;;
2021/08/25 10:37:25;;;;;;;3.33;2.93;;;32.80;32.70;;;;;;5149866;22;20493;-83
2021/08/25 10:40:03;;;;;;;3.53;3.23;;;32.30;32.70;;;;;;4993149;28;20454;-81
2021/08/25 10:43:01;;;;;;;4.10;3.30;;;32.40;33.70;;;;;;4986709;28;21014;-80
2021/08/25 10:45:43;;;;;;;4.03;2.90;;;32.80;33.30;;;;;;4990678;28;20469;-82
2021/08/25 10:48:16;;;;;;;3.40;3.00;;;32.50;33.40;;;;;;4998063;28;20457;-83
2021/08/25 10:50:56;;;;;;;6.40;3.90;;;32.40;33.90;;;;;;4978373;28;20457;-84
2021/08/25 10:53:31;;;;;;;4.43;3.10;;;32.60;33.30;;;;;;4992088;28;20516;-82
2021/08/25 10:56:41;;;;;;;4.00;3.20;;;32.30;33.30;;;;;;4997963;28;20465;-82
2021/08/25 10:59:22;;;;;;;3.37;3.07;;;31.90;33.20;;;;;;4973901;28;20912;-81
2021/08/25 11:01:59;;;;;;;3.47;3.17;;;32.00;33.30;;;;;;4996731;28;20978;-83
2021/08/25 11:04:30;;;;;;;4.30;3.43;;;31.70;33.40;;;;;;4976558;28;20457;-83
2021/08/25 11:07:25;;;;;;;3.60;3.30;;;31.20;34.00;;;;;;4976460;28;20477;-81
2021/08/25 11:09:58;;;;;;;3.60;3.03;;;30.20;34.80;;;;;;4967142;28;20889;-82
2021/08/25 11:12:45;;;;;;;3.93;3.33;;;30.00;35.70;;;;;;4977110;28;20461;-82
2021/08/25 11:15:31;;;;;;;3.30;2.90;;;30.50;35.40;;;;;;4990822;28;20492;-81
2021/08/25 11:18:01;;;;;;;4.20;3.30;;;30.20;35.50;;;;;;4994382;28;21194;-84
2021/08/25 11:20:29;;;;;;;3.93;3.23;;;30.30;36.10;;;;;;4995314;28;20462;-81
2021/08/25 11:22:56;;;;;;;4.30;3.20;;;31.10;35.30;;;;;;4991941;28;20489;-84
2021/08/25 11:25:28;;;;;;;4.03;3.60;;;31.10;34.80;;;;;;4990916;28;20528;-83
2021/08/25 11:28:01;;;;;;;4.60;3.33;;;30.90;34.60;;;;;;4970939;28;21426;-83
2021/08/25 11:30:40;;;;;;;3.53;3.23;;;31.20;34.70;;;;;;4978061;28;20460;-84
2021/08/25 11:33:15;;;;;;;4.23;3.20;;;31.90;34.40;;;;;;4995413;28;20465;-83
2021/08/25 11:35:52;;;;;;;4.37;3.93;;;32.20;33.60;;;;;;4992122;28;20485;-83
2021/08/25 11:38:35;;;;;;;4.00;3.10;;;31.80;34.30;;;;;;4985098;28;20477;-83
2021/08/25 11:42:09;;;;;;;4.40;3.43;;;31.30;35.40;;;;;;4994942;28;20501;-84
2021/08/25 11:44:13;;;;;;;4.80;2.90;;;32.00;34.70;;;;;;4988007;28;20480;-82
2021/08/25 11:46:42;;;;;;;4.53;3.97;;;31.60;35.50;;;;;;4977307;28;20499;-83
2021/08/25 11:49:14;;;;;;;6.00;3.17;;;31.50;36.10;;;;;;4994728;28;20461;-82
2021/08/25 11:51:46;;;;;;;3.70;3.40;;;31.40;35.60;;;;;;4973010;28;20468;-83
2021/08/25 11:57:53;;;;;;;3.33;3.03;;;30.60;36.30;;;;;;4984593;28;21011;-83
2021/08/25 12:00:20;;;;;;;3.73;3.43;;;31.40;35.00;;;;;;4988816;28;20465;-83
2021/08/25 12:03:02;;;;;;;3.97;3.47;;;31.20;35.80;;;;;;4969505;28;20513;-85
2021/08/25 12:05:31;;;;;;;4.13;3.47;;;30.80;35.00;;;;;;4961036;28;20480;-80
2021/08/25 12:08:07;;;;;;;6.83;4.00;;;30.40;35.40;;;;;;4970216;28;20442;-83
2021/08/25 12:10:41;;;;;;;4.20;3.80;;;30.40;35.60;;;;;;4952570;28;20454;-81
2021/08/25 12:13:29;;;;;;;4.40;3.73;;;30.10;35.60;;;;;;4952481;28;20458;-83
2021/08/25 12:15:57;;;;;;;4.50;3.20;;;30.00;36.20;;;;;;4951976;28;20479;-82
2021/08/25 12:18:27;;;;;;;3.53;3.17;;;30.60;36.80;;;;;;4960728;28;20458;-81
2021/08/25 12:21:07;;;;;;;4.10;3.70;;;31.60;35.40;;;;;;4949288;28;20458;-82
2021/08/25 12:23:34;;;;;;;4.40;4.00;;;31.50;34.50;;;;;;4965499;28;20898;-81
2021/08/25 12:26:01;;;;;;;4.77;4.23;;;31.30;34.90;;;;;;4944074;28;20481;-83
2021/08/25 12:28:37;;;;;;;5.03;3.70;;;31.10;35.10;;;;;;4961433;28;20961;-80
2021/08/25 12:31:12;;;;;;;4.73;3.40;;;30.90;35.10;;;;;;4949666;28;20466;-81
2021/08/25 12:33:39;;;;;;;4.87;4.30;;;30.70;35.00;;;;;;4970239;28;20458;-81
2021/08/25 12:36:23;;;;;;;4.97;3.80;;;30.80;35.80;;;;;;4967170;28;20463;-81
2021/08/25 12:38:52;;;;;;;5.10;4.30;;;30.50;35.70;;;;;;4965166;28;20454;-82
2021/08/25 12:41:20;;;;;;;4.20;3.40;;;30.60;36.00;;;;;;4950548;28;20474;-81
2021/08/25 12:43:47;;;;;;;4.53;4.13;;;30.40;35.90;;;;;;4969536;28;21211;-81
2021/08/25 12:46:14;;;;;;;5.27;3.70;;;30.30;35.60;;;;;;4954939;28;21403;-82
2021/08/25 12:48:41;;;;;;;6.40;4.70;;;30.00;36.10;;;;;;4953702;28;20489;-83
2021/08/25 12:51:09;;;;;;;4.17;3.77;;;29.90;36.60;;;;;;4974126;28;20452;-79
2021/08/25 12:53:36;;;;;;;4.87;4.10;;;30.00;36.50;;;;;;4969463;28;20458;-85
2021/08/25 12:56:03;;;;;;;5.50;3.90;;;31.00;35.60;;;;;;4973577;28;20470;-81
2021/08/25 12:58:30;;;;;;;6.00;3.80;;;30.60;35.80;;;;;;4961633;28;20521;-83
2021/08/25 13:00:59;;;;;;;4.23;3.83;;;30.50;35.90;;;;;;4961395;28;20506;-84
2021/08/25 13:03:27;;;;;;;6.73;3.80;;;30.00;36.90;;;;;;4978027;28;20482;-84
2021/08/25 13:05:57;;;;;;;5.63;4.20;;;30.30;37.00;;;;;;4955790;28;20481;-80
2021/08/25 13:08:25;;;;;;;5.23;4.70;;;30.70;35.90;;;;;;4974772;28;20492;-83
2021/08/25 13:10:52;;;;;;;7.33;4.27;;;30.60;36.60;;;;;;4971432;28;20470;-81